createdAt,value
2022-08-03T00:00:32.000Z,16.41
2022-08-03T00:01:32.000Z,16.42
2022-08-03T00:02:32.000Z,16.44
2022-08-03T00:03:32.000Z,16.41
2022-08-03T00:04:32.000Z,16.44
2022-08-03T00:05:32.000Z,16.42
2022-08-03T00:06:32.000Z,16.40
2022-08-03T00:07:32.000Z,16.35
2022-08-03T00:08:32.000Z,16.37
2022-08-03T00:09:32.000Z,16.37
2022-08-03T00:10:32.000Z,16.35
2022-08-03T00:11:32.000Z,16.34
2022-08-03T00:12:32.000Z,16.33
2022-08-03T00:13:32.000Z,16.27
2022-08-03T00:14:32.000Z,16.25
2022-08-03T00:15:32.000Z,16.23
2022-08-03T00:16:32.000Z,16.16
2022-08-03T00:17:32.000Z,16.16
2022-08-03T00:18:32.000Z,16.07
2022-08-03T00:19:32.000Z,16.06
2022-08-03T00:20:32.000Z,16.01
2022-08-03T00:21:32.000Z,16.01
2022-08-03T00:22:32.000Z,16.01
2022-08-03T00:23:33.000Z,16.01
2022-08-03T00:24:33.000Z,16.04
2022-08-03T00:24:33.000Z,16.04
2022-08-03T00:24:33.000Z,16.04
2022-08-03T00:25:33.000Z,16.06
2022-08-03T00:25:33.000Z,16.06
2022-08-03T00:25:33.000Z,16.06
2022-08-03T00:26:33.000Z,16.09
2022-08-03T00:26:33.000Z,16.09
2022-08-03T00:26:33.000Z,16.09
2022-08-03T00:27:33.000Z,16.09
2022-08-03T00:27:33.000Z,16.09
2022-08-03T00:27:33.000Z,16.09
2022-08-03T00:28:33.000Z,16.11
2022-08-03T00:28:33.000Z,16.11
2022-08-03T00:28:33.000Z,16.11
2022-08-03T00:29:33.000Z,16.07
2022-08-03T00:29:33.000Z,16.07
2022-08-03T00:30:33.000Z,16.11
2022-08-03T00:30:33.000Z,16.11
2022-08-03T00:31:33.000Z,16.09
2022-08-03T00:31:33.000Z,16.09
2022-08-03T00:32:33.000Z,16.09
2022-08-03T00:32:33.000Z,16.09
2022-08-03T00:33:33.000Z,16.14
2022-08-03T00:33:33.000Z,16.14
2022-08-03T00:34:33.000Z,16.16
2022-08-03T00:35:33.000Z,16.14
2022-08-03T00:36:33.000Z,16.23
2022-08-03T00:37:33.000Z,16.18
2022-08-03T00:38:33.000Z,16.23
2022-08-03T00:39:33.000Z,16.18
2022-08-03T00:40:33.000Z,16.09
2022-08-03T00:41:33.000Z,16.00
2022-08-03T00:42:33.000Z,15.94
2022-08-03T00:43:33.000Z,15.86
2022-08-03T00:44:33.000Z,15.81
2022-08-03T00:45:33.000Z,15.76
2022-08-03T00:46:33.000Z,15.74
2022-08-03T00:47:33.000Z,15.72
2022-08-03T00:48:34.000Z,15.76
2022-08-03T00:49:34.000Z,15.74
2022-08-03T00:50:34.000Z,15.76
2022-08-03T00:51:34.000Z,15.74
2022-08-03T00:52:34.000Z,15.74
2022-08-03T00:53:34.000Z,15.74
2022-08-03T00:54:34.000Z,15.72
2022-08-03T00:55:34.000Z,15.72
2022-08-03T00:56:34.000Z,15.75
2022-08-03T00:57:34.000Z,15.74
2022-08-03T00:58:34.000Z,15.76
2022-08-03T00:59:34.000Z,15.74
2022-08-03T01:00:34.000Z,15.74
2022-08-03T01:01:34.000Z,15.72
2022-08-03T01:02:34.000Z,15.74
2022-08-03T01:03:34.000Z,15.79
2022-08-03T01:04:34.000Z,15.76
2022-08-03T01:05:34.000Z,15.76
2022-08-03T01:06:34.000Z,15.76
2022-08-03T01:07:34.000Z,15.75
2022-08-03T01:08:34.000Z,15.76
2022-08-03T01:09:34.000Z,15.76
2022-08-03T01:10:34.000Z,15.75
2022-08-03T01:11:35.000Z,15.70
2022-08-03T01:12:35.000Z,15.75
2022-08-03T01:13:35.000Z,15.74
2022-08-03T01:14:35.000Z,15.70
2022-08-03T01:15:35.000Z,15.72
2022-08-03T01:16:35.000Z,15.70
2022-08-03T01:17:35.000Z,15.70
2022-08-03T01:18:35.000Z,15.76
2022-08-03T01:19:35.000Z,15.68
2022-08-03T01:20:35.000Z,15.74
2022-08-03T01:21:35.000Z,15.74
2022-08-03T01:22:35.000Z,15.70
2022-08-03T01:23:35.000Z,15.72
2022-08-03T01:24:35.000Z,15.72
2022-08-03T01:25:35.000Z,15.75
2022-08-03T01:26:35.000Z,15.75
2022-08-03T01:27:35.000Z,15.74
2022-08-03T01:28:35.000Z,15.74
2022-08-03T01:29:35.000Z,15.70
2022-08-03T01:30:35.000Z,15.67
2022-08-03T01:31:35.000Z,15.66
2022-08-03T01:32:35.000Z,15.66
2022-08-03T01:33:35.000Z,15.64
2022-08-03T01:34:36.000Z,15.66
2022-08-03T01:35:36.000Z,15.66
2022-08-03T01:36:36.000Z,15.67
2022-08-03T01:37:36.000Z,15.63
2022-08-03T01:38:36.000Z,15.64
2022-08-03T01:39:36.000Z,15.64
2022-08-03T01:40:36.000Z,15.59
2022-08-03T01:41:36.000Z,15.52
2022-08-03T01:42:36.000Z,15.52
2022-08-03T01:43:36.000Z,15.51
2022-08-03T01:44:36.000Z,15.49
2022-08-03T01:45:36.000Z,15.49
2022-08-03T01:46:36.000Z,15.46
2022-08-03T01:47:36.000Z,15.49
2022-08-03T01:48:36.000Z,15.48
2022-08-03T01:49:36.000Z,15.46
2022-08-03T01:50:36.000Z,15.43
2022-08-03T01:51:36.000Z,15.43
2022-08-03T01:52:36.000Z,15.43
2022-08-03T01:53:36.000Z,15.43
2022-08-03T01:54:36.000Z,15.48
2022-08-03T01:55:36.000Z,15.45
2022-08-03T01:56:36.000Z,15.45
2022-08-03T01:57:37.000Z,15.48
2022-08-03T01:58:37.000Z,15.51
2022-08-03T01:59:37.000Z,15.48
2022-08-03T02:00:37.000Z,15.51
2022-08-03T02:01:37.000Z,15.54
2022-08-03T02:02:37.000Z,15.49
2022-08-03T02:03:37.000Z,15.46
2022-08-03T02:04:37.000Z,15.48
2022-08-03T02:05:37.000Z,15.45
2022-08-03T02:06:37.000Z,15.43
2022-08-03T02:07:37.000Z,15.43
2022-08-03T02:08:37.000Z,15.39
2022-08-03T02:09:37.000Z,15.38
2022-08-03T02:10:37.000Z,15.38
2022-08-03T02:11:37.000Z,15.38
2022-08-03T02:12:37.000Z,15.39
2022-08-03T02:13:37.000Z,15.41
2022-08-03T02:14:37.000Z,15.43
2022-08-03T02:15:37.000Z,15.41
2022-08-03T02:16:37.000Z,15.46
2022-08-03T02:17:37.000Z,15.43
2022-08-03T02:18:37.000Z,15.46
2022-08-03T02:19:37.000Z,15.43
2022-08-03T02:20:37.000Z,15.45
2022-08-03T02:21:38.000Z,15.45
2022-08-03T02:22:38.000Z,15.46
2022-08-03T02:23:38.000Z,15.49
2022-08-03T02:24:38.000Z,15.48
2022-08-03T02:25:38.000Z,15.48
2022-08-03T02:26:38.000Z,15.49
2022-08-03T02:27:38.000Z,15.51
2022-08-03T02:28:38.000Z,15.52
2022-08-03T02:29:38.000Z,15.52
2022-08-03T02:30:38.000Z,15.54
2022-08-03T02:31:38.000Z,15.54
2022-08-03T02:32:38.000Z,15.54
2022-08-03T02:33:38.000Z,15.54
2022-08-03T02:34:38.000Z,15.56
2022-08-03T02:35:38.000Z,15.57
2022-08-03T02:36:38.000Z,15.57
2022-08-03T02:37:38.000Z,15.57
2022-08-03T02:38:38.000Z,15.56
2022-08-03T02:39:38.000Z,15.57
2022-08-03T02:40:38.000Z,15.56
2022-08-03T02:41:38.000Z,15.52
2022-08-03T02:42:38.000Z,15.52
2022-08-03T02:43:38.000Z,15.52
2022-08-03T02:44:38.000Z,15.51
2022-08-03T02:45:39.000Z,15.52
2022-08-03T02:46:39.000Z,15.51
2022-08-03T02:47:39.000Z,15.51
2022-08-03T02:48:39.000Z,15.49
2022-08-03T02:49:39.000Z,15.51
2022-08-03T02:50:39.000Z,15.48
2022-08-03T02:51:39.000Z,15.48
2022-08-03T02:52:39.000Z,15.45
2022-08-03T02:53:39.000Z,15.43
2022-08-03T02:54:39.000Z,15.45
2022-08-03T02:55:39.000Z,15.42
2022-08-03T02:56:39.000Z,15.42
2022-08-03T02:57:39.000Z,15.39
2022-08-03T02:58:39.000Z,15.39
2022-08-03T02:59:39.000Z,15.35
2022-08-03T02:59:39.000Z,15.35
2022-08-03T03:00:39.000Z,15.38
2022-08-03T03:00:39.000Z,15.38
2022-08-03T03:01:39.000Z,15.36
2022-08-03T03:01:39.000Z,15.36
2022-08-03T03:02:39.000Z,15.38
2022-08-03T03:02:39.000Z,15.38
2022-08-03T03:03:39.000Z,15.38
2022-08-03T03:03:39.000Z,15.38
2022-08-03T03:04:39.000Z,15.39
2022-08-03T03:05:39.000Z,15.35
2022-08-03T03:06:39.000Z,15.36
2022-08-03T03:07:39.000Z,15.33
2022-08-03T03:08:39.000Z,15.35
2022-08-03T03:09:39.000Z,15.38
2022-08-03T03:10:39.000Z,15.39
2022-08-03T03:11:39.000Z,15.36
2022-08-03T03:12:40.000Z,15.33
2022-08-03T03:13:40.000Z,15.39
2022-08-03T03:14:40.000Z,15.39
2022-08-03T03:15:40.000Z,15.39
2022-08-03T03:16:40.000Z,15.38
2022-08-03T03:17:40.000Z,15.41
2022-08-03T03:18:40.000Z,15.38
2022-08-03T03:19:40.000Z,15.38
2022-08-03T03:20:40.000Z,15.33
2022-08-03T03:21:40.000Z,15.35
2022-08-03T03:22:40.000Z,15.31
2022-08-03T03:23:40.000Z,15.31
2022-08-03T03:24:40.000Z,15.28
2022-08-03T03:25:40.000Z,15.28
2022-08-03T03:26:40.000Z,15.28
2022-08-03T03:27:40.000Z,15.31
2022-08-03T03:28:40.000Z,15.27
2022-08-03T03:29:40.000Z,15.26
2022-08-03T03:30:40.000Z,15.26
2022-08-03T03:31:40.000Z,15.27
2022-08-03T03:32:40.000Z,15.27
2022-08-03T03:33:40.000Z,15.27
2022-08-03T03:34:41.000Z,15.28
2022-08-03T03:35:41.000Z,15.24
2022-08-03T03:36:41.000Z,15.28
2022-08-03T03:37:41.000Z,15.26
2022-08-03T03:38:41.000Z,15.24
2022-08-03T03:39:41.000Z,15.26
2022-08-03T03:40:41.000Z,15.28
2022-08-03T03:41:41.000Z,15.30
2022-08-03T03:42:41.000Z,15.27
2022-08-03T03:43:41.000Z,15.28
2022-08-03T03:44:41.000Z,15.26
2022-08-03T03:45:41.000Z,15.30
2022-08-03T03:46:41.000Z,15.30
2022-08-03T03:47:41.000Z,15.28
2022-08-03T03:48:41.000Z,15.31
2022-08-03T03:49:41.000Z,15.33
2022-08-03T03:50:41.000Z,15.35
2022-08-03T03:51:41.000Z,15.36
2022-08-03T03:52:41.000Z,15.36
2022-08-03T03:53:41.000Z,15.38
2022-08-03T03:54:41.000Z,15.39
2022-08-03T03:55:41.000Z,15.36
2022-08-03T03:56:42.000Z,15.38
2022-08-03T03:57:42.000Z,15.38
2022-08-03T03:58:42.000Z,15.36
2022-08-03T03:59:42.000Z,15.38
2022-08-03T04:00:42.000Z,15.38
2022-08-03T04:01:42.000Z,15.36
2022-08-03T04:02:42.000Z,15.33
2022-08-03T04:03:42.000Z,15.33
2022-08-03T04:04:42.000Z,15.33
2022-08-03T04:05:42.000Z,15.33
2022-08-03T04:06:42.000Z,15.31
2022-08-03T04:07:42.000Z,15.31
2022-08-03T04:08:42.000Z,15.35
2022-08-03T04:09:42.000Z,15.35
2022-08-03T04:10:42.000Z,15.35
2022-08-03T04:11:42.000Z,15.35
2022-08-03T04:12:42.000Z,15.36
2022-08-03T04:13:42.000Z,15.35
2022-08-03T04:14:42.000Z,15.38
2022-08-03T04:15:42.000Z,15.39
2022-08-03T04:16:42.000Z,15.42
2022-08-03T04:17:42.000Z,15.43
2022-08-03T04:18:43.000Z,15.43
2022-08-03T04:19:43.000Z,15.45
2022-08-03T04:20:43.000Z,15.43
2022-08-03T04:21:43.000Z,15.46
2022-08-03T04:22:43.000Z,15.48
2022-08-03T04:23:43.000Z,15.49
2022-08-03T04:24:43.000Z,15.52
2022-08-03T04:25:43.000Z,15.54
2022-08-03T04:26:43.000Z,15.57
2022-08-03T04:27:43.000Z,15.60
2022-08-03T04:28:43.000Z,15.63
2022-08-03T04:29:43.000Z,15.66
2022-08-03T04:30:43.000Z,15.67
2022-08-03T04:31:43.000Z,15.72
2022-08-03T04:32:43.000Z,15.74
2022-08-03T04:33:43.000Z,15.75
2022-08-03T04:34:43.000Z,15.81
2022-08-03T04:35:43.000Z,15.81
2022-08-03T04:36:43.000Z,15.82
2022-08-03T04:37:43.000Z,15.89
2022-08-03T04:38:43.000Z,15.93
2022-08-03T04:39:43.000Z,15.96
2022-08-03T04:40:44.000Z,16.04
2022-08-03T04:41:44.000Z,16.03
2022-08-03T04:42:44.000Z,16.09
2022-08-03T04:43:44.000Z,16.14
2022-08-03T04:44:44.000Z,16.16
2022-08-03T04:45:44.000Z,16.25
2022-08-03T04:46:44.000Z,16.27
2022-08-03T04:47:44.000Z,16.34
2022-08-03T04:48:44.000Z,16.38
2022-08-03T04:49:44.000Z,16.44
2022-08-03T04:50:44.000Z,16.48
2022-08-03T04:51:44.000Z,16.56
2022-08-03T04:52:44.000Z,16.59
2022-08-03T04:53:44.000Z,16.59
2022-08-03T04:54:44.000Z,16.62
2022-08-03T04:55:44.000Z,16.65
2022-08-03T04:56:44.000Z,16.71
2022-08-03T04:57:44.000Z,16.75
2022-08-03T04:58:44.000Z,16.77
2022-08-03T04:59:44.000Z,16.81
2022-08-03T05:00:44.000Z,16.88
2022-08-03T05:01:44.000Z,16.93
2022-08-03T05:02:44.000Z,16.95
2022-08-03T05:03:44.000Z,17.00
2022-08-03T05:04:44.000Z,17.06
2022-08-03T05:04:44.000Z,17.06
2022-08-03T05:05:45.000Z,17.15
2022-08-03T05:05:45.000Z,17.15
2022-08-03T05:06:45.000Z,17.23
2022-08-03T05:06:45.000Z,17.23
2022-08-03T05:07:45.000Z,17.25
2022-08-03T05:07:45.000Z,17.25
2022-08-03T05:08:45.000Z,17.33
2022-08-03T05:08:45.000Z,17.33
2022-08-03T05:09:45.000Z,17.40
2022-08-03T05:10:45.000Z,17.44
2022-08-03T05:11:45.000Z,17.50
2022-08-03T05:12:45.000Z,17.53
2022-08-03T05:13:45.000Z,17.59
2022-08-03T05:14:45.000Z,17.59
2022-08-03T05:15:45.000Z,17.66
2022-08-03T05:16:45.000Z,17.69
2022-08-03T05:17:45.000Z,17.76
2022-08-03T05:18:45.000Z,17.78
2022-08-03T05:19:45.000Z,17.87
2022-08-03T05:20:45.000Z,17.88
2022-08-03T05:21:45.000Z,17.95
2022-08-03T05:22:45.000Z,18.00
2022-08-03T05:23:45.000Z,18.04
2022-08-03T05:24:45.000Z,18.12
2022-08-03T05:25:45.000Z,18.17
2022-08-03T05:26:45.000Z,18.24
2022-08-03T05:27:45.000Z,18.28
2022-08-03T05:28:45.000Z,18.33
2022-08-03T05:29:45.000Z,18.39
2022-08-03T05:30:45.000Z,18.42
2022-08-03T05:31:45.000Z,18.49
2022-08-03T05:32:45.000Z,18.50
2022-08-03T05:33:45.000Z,18.54
2022-08-03T05:34:45.000Z,18.59
2022-08-03T05:35:45.000Z,18.65
2022-08-03T05:36:45.000Z,18.70
2022-08-03T05:37:45.000Z,18.72
2022-08-03T05:38:45.000Z,18.73
2022-08-03T05:39:45.000Z,18.80
2022-08-03T05:40:45.000Z,18.83
2022-08-03T05:41:45.000Z,18.84
2022-08-03T05:42:45.000Z,18.86
2022-08-03T05:43:45.000Z,18.91
2022-08-03T05:44:46.000Z,18.94
2022-08-03T05:45:46.000Z,18.94
2022-08-03T05:46:46.000Z,18.98
2022-08-03T05:47:46.000Z,19.02
2022-08-03T05:48:46.000Z,19.10
2022-08-03T05:49:46.000Z,19.11
2022-08-03T05:50:46.000Z,19.15
2022-08-03T05:51:46.000Z,19.23
2022-08-03T05:52:46.000Z,19.25
2022-08-03T05:53:46.000Z,19.32
2022-08-03T05:54:46.000Z,19.39
2022-08-03T05:55:46.000Z,19.42
2022-08-03T05:56:46.000Z,19.47
2022-08-03T05:57:46.000Z,19.54
2022-08-03T05:58:46.000Z,19.61
2022-08-03T05:59:46.000Z,19.68
2022-08-03T06:00:46.000Z,19.72
2022-08-03T06:01:46.000Z,19.83
2022-08-03T06:02:46.000Z,19.84
2022-08-03T06:03:46.000Z,19.93
2022-08-03T06:04:46.000Z,19.97
2022-08-03T06:04:46.000Z,19.97
2022-08-03T06:05:46.000Z,20.03
2022-08-03T06:05:46.000Z,20.03
2022-08-03T06:06:46.000Z,20.10
2022-08-03T06:06:46.000Z,20.10
2022-08-03T06:07:46.000Z,20.12
2022-08-03T06:07:46.000Z,20.12
2022-08-03T06:08:46.000Z,20.16
2022-08-03T06:08:46.000Z,20.16
2022-08-03T06:09:46.000Z,20.21
2022-08-03T06:10:46.000Z,20.28
2022-08-03T06:11:46.000Z,20.35
2022-08-03T06:12:46.000Z,20.38
2022-08-03T06:13:46.000Z,20.42
2022-08-03T06:14:46.000Z,20.49
2022-08-03T06:15:46.000Z,20.54
2022-08-03T06:16:46.000Z,20.56
2022-08-03T06:17:46.000Z,20.62
2022-08-03T06:18:46.000Z,20.65
2022-08-03T06:19:46.000Z,20.65
2022-08-03T06:20:46.000Z,20.68
2022-08-03T06:21:46.000Z,20.71
2022-08-03T06:22:46.000Z,20.71
2022-08-03T06:23:46.000Z,20.77
2022-08-03T06:24:46.000Z,20.81
2022-08-03T06:25:46.000Z,20.87
2022-08-03T06:26:46.000Z,20.93
2022-08-03T06:27:46.000Z,20.98
2022-08-03T06:28:46.000Z,21.02
2022-08-03T06:29:46.000Z,21.08
2022-08-03T06:30:46.000Z,21.16
2022-08-03T06:31:46.000Z,21.19
2022-08-03T06:32:46.000Z,21.24
2022-08-03T06:33:46.000Z,21.34
2022-08-03T06:34:46.000Z,21.35
2022-08-03T06:35:46.000Z,21.41
2022-08-03T06:36:46.000Z,21.44
2022-08-03T06:37:46.000Z,21.50
2022-08-03T06:38:46.000Z,21.51
2022-08-03T06:39:46.000Z,21.57
2022-08-03T06:40:46.000Z,21.66
2022-08-03T06:41:46.000Z,21.66
2022-08-03T06:42:46.000Z,21.74
2022-08-03T06:43:46.000Z,21.76
2022-08-03T06:44:46.000Z,21.81
2022-08-03T06:44:46.000Z,21.81
2022-08-03T06:45:46.000Z,21.83
2022-08-03T06:45:46.000Z,21.83
2022-08-03T06:46:46.000Z,21.90
2022-08-03T06:46:46.000Z,21.90
2022-08-03T06:47:46.000Z,21.92
2022-08-03T06:47:46.000Z,21.92
2022-08-03T06:48:46.000Z,22.01
2022-08-03T06:48:46.000Z,22.01
2022-08-03T06:49:46.000Z,21.99
2022-08-03T06:50:46.000Z,22.02
2022-08-03T06:51:46.000Z,22.09
2022-08-03T06:52:46.000Z,22.10
2022-08-03T06:53:46.000Z,22.12
2022-08-03T06:54:46.000Z,22.17
2022-08-03T06:54:46.000Z,22.17
2022-08-03T06:55:46.000Z,22.27
2022-08-03T06:55:46.000Z,22.27
2022-08-03T06:56:46.000Z,22.29
2022-08-03T06:56:46.000Z,22.29
2022-08-03T06:57:46.000Z,22.35
2022-08-03T06:57:46.000Z,22.35
2022-08-03T06:58:46.000Z,22.38
2022-08-03T06:58:46.000Z,22.38
2022-08-03T06:59:46.000Z,22.44
2022-08-03T07:00:46.000Z,22.47
2022-08-03T07:01:46.000Z,22.53
2022-08-03T07:02:46.000Z,22.56
2022-08-03T07:03:46.000Z,22.59
2022-08-03T07:04:46.000Z,22.64
2022-08-03T07:05:46.000Z,22.67
2022-08-03T07:06:45.000Z,22.68
2022-08-03T07:07:45.000Z,22.72
2022-08-03T07:08:45.000Z,22.75
2022-08-03T07:09:45.000Z,22.82
2022-08-03T07:09:45.000Z,22.82
2022-08-03T07:10:45.000Z,22.87
2022-08-03T07:10:45.000Z,22.87
2022-08-03T07:11:45.000Z,22.93
2022-08-03T07:11:45.000Z,22.93
2022-08-03T07:12:45.000Z,22.94
2022-08-03T07:12:45.000Z,22.94
2022-08-03T07:13:45.000Z,23.01
2022-08-03T07:13:45.000Z,23.01
2022-08-03T07:14:45.000Z,23.01
2022-08-03T07:15:45.000Z,23.07
2022-08-03T07:16:45.000Z,23.11
2022-08-03T07:17:45.000Z,23.12
2022-08-03T07:18:45.000Z,23.15
2022-08-03T07:19:45.000Z,23.19
2022-08-03T07:20:45.000Z,23.23
2022-08-03T07:21:45.000Z,23.32
2022-08-03T07:22:45.000Z,23.34
2022-08-03T07:23:45.000Z,23.39
2022-08-03T07:24:45.000Z,23.43
2022-08-03T07:25:45.000Z,23.53
2022-08-03T07:26:45.000Z,23.53
2022-08-03T07:27:45.000Z,23.57
2022-08-03T07:28:45.000Z,23.55
2022-08-03T07:29:45.000Z,23.64
2022-08-03T07:29:45.000Z,23.64
2022-08-03T07:30:45.000Z,23.65
2022-08-03T07:30:45.000Z,23.65
2022-08-03T07:31:45.000Z,23.65
2022-08-03T07:31:45.000Z,23.65
2022-08-03T07:32:45.000Z,23.70
2022-08-03T07:32:45.000Z,23.70
2022-08-03T07:33:45.000Z,23.76
2022-08-03T07:33:45.000Z,23.76
2022-08-03T07:34:45.000Z,23.79
2022-08-03T07:35:45.000Z,23.83
2022-08-03T07:36:45.000Z,23.90
2022-08-03T07:37:45.000Z,23.92
2022-08-03T07:38:45.000Z,23.90
2022-08-03T07:39:45.000Z,23.98
2022-08-03T07:40:45.000Z,24.04
2022-08-03T07:41:45.000Z,24.07
2022-08-03T07:42:45.000Z,24.08
2022-08-03T07:43:45.000Z,24.13
2022-08-03T07:44:45.000Z,24.17
2022-08-03T07:45:45.000Z,24.23
2022-08-03T07:46:45.000Z,24.27
2022-08-03T07:47:45.000Z,24.34
2022-08-03T07:48:45.000Z,24.35
2022-08-03T07:49:44.000Z,24.42
2022-08-03T07:50:44.000Z,24.47
2022-08-03T07:51:44.000Z,24.47
2022-08-03T07:52:44.000Z,24.49
2022-08-03T07:53:44.000Z,24.52
2022-08-03T07:54:44.000Z,24.59
2022-08-03T07:54:44.000Z,24.59
2022-08-03T07:55:44.000Z,24.67
2022-08-03T07:55:44.000Z,24.67
2022-08-03T07:56:44.000Z,24.71
2022-08-03T07:56:44.000Z,24.71
2022-08-03T07:57:44.000Z,24.80
2022-08-03T07:57:44.000Z,24.80
2022-08-03T07:58:44.000Z,24.87
2022-08-03T07:58:44.000Z,24.87
2022-08-03T07:59:44.000Z,24.95
2022-08-03T08:00:44.000Z,25.01
2022-08-03T08:01:44.000Z,25.09
2022-08-03T08:02:44.000Z,25.13
2022-08-03T08:03:44.000Z,25.17
2022-08-03T08:04:44.000Z,25.22
2022-08-03T08:05:44.000Z,25.28
2022-08-03T08:06:44.000Z,25.32
2022-08-03T08:07:44.000Z,25.32
2022-08-03T08:08:44.000Z,25.38
2022-08-03T08:09:44.000Z,25.42
2022-08-03T08:10:44.000Z,25.43
2022-08-03T08:11:44.000Z,25.52
2022-08-03T08:12:44.000Z,25.53
2022-08-03T08:13:44.000Z,25.57
2022-08-03T08:14:44.000Z,25.61
2022-08-03T08:15:44.000Z,25.65
2022-08-03T08:16:44.000Z,25.72
2022-08-03T08:17:44.000Z,25.74
2022-08-03T08:18:44.000Z,25.83
2022-08-03T08:19:43.000Z,25.84
2022-08-03T08:20:43.000Z,25.83
2022-08-03T08:21:43.000Z,25.87
2022-08-03T08:22:43.000Z,25.89
2022-08-03T08:23:43.000Z,25.97
2022-08-03T08:24:43.000Z,25.99
2022-08-03T08:24:43.000Z,25.99
2022-08-03T08:25:43.000Z,26.05
2022-08-03T08:25:43.000Z,26.05
2022-08-03T08:26:43.000Z,26.06
2022-08-03T08:26:43.000Z,26.06
2022-08-03T08:27:43.000Z,26.12
2022-08-03T08:27:43.000Z,26.12
2022-08-03T08:28:43.000Z,26.18
2022-08-03T08:28:43.000Z,26.18
2022-08-03T08:29:43.000Z,26.21
2022-08-03T08:30:43.000Z,26.21
2022-08-03T08:31:43.000Z,26.24
2022-08-03T08:32:43.000Z,26.25
2022-08-03T08:33:43.000Z,26.31
2022-08-03T08:34:43.000Z,26.35
2022-08-03T08:35:43.000Z,26.42
2022-08-03T08:36:43.000Z,26.46
2022-08-03T08:37:43.000Z,26.47
2022-08-03T08:38:43.000Z,26.54
2022-08-03T08:39:43.000Z,26.54
2022-08-03T08:40:43.000Z,26.54
2022-08-03T08:41:43.000Z,26.50
2022-08-03T08:42:43.000Z,26.57
2022-08-03T08:43:43.000Z,26.59
2022-08-03T08:44:42.000Z,26.61
2022-08-03T08:44:42.000Z,26.61
2022-08-03T08:45:42.000Z,26.64
2022-08-03T08:45:42.000Z,26.64
2022-08-03T08:46:42.000Z,26.67
2022-08-03T08:46:42.000Z,26.67
2022-08-03T08:47:42.000Z,26.67
2022-08-03T08:47:42.000Z,26.67
2022-08-03T08:48:42.000Z,26.69
2022-08-03T08:48:42.000Z,26.69
2022-08-03T08:49:42.000Z,26.83
2022-08-03T08:50:42.000Z,26.92
2022-08-03T08:51:42.000Z,27.01
2022-08-03T08:52:42.000Z,27.06
2022-08-03T08:53:42.000Z,27.11
2022-08-03T08:54:42.000Z,27.21
2022-08-03T08:55:42.000Z,27.29
2022-08-03T08:56:42.000Z,27.33
2022-08-03T08:57:42.000Z,27.33
2022-08-03T08:58:42.000Z,27.39
2022-08-03T08:59:42.000Z,27.41
2022-08-03T09:00:42.000Z,27.48
2022-08-03T09:01:42.000Z,27.53
2022-08-03T09:02:42.000Z,27.66
2022-08-03T09:03:42.000Z,27.69
2022-08-03T09:04:42.000Z,27.74
2022-08-03T09:04:42.000Z,27.74
2022-08-03T09:04:42.000Z,27.74
2022-08-03T09:05:42.000Z,27.77
2022-08-03T09:05:42.000Z,27.77
2022-08-03T09:05:42.000Z,27.77
2022-08-03T09:06:41.000Z,27.71
2022-08-03T09:06:41.000Z,27.71
2022-08-03T09:06:41.000Z,27.71
2022-08-03T09:07:41.000Z,27.71
2022-08-03T09:07:41.000Z,27.71
2022-08-03T09:07:41.000Z,27.71
2022-08-03T09:08:41.000Z,27.73
2022-08-03T09:08:41.000Z,27.73
2022-08-03T09:08:41.000Z,27.73
2022-08-03T09:09:41.000Z,27.73
2022-08-03T09:09:41.000Z,27.73
2022-08-03T09:10:41.000Z,27.77
2022-08-03T09:10:41.000Z,27.77
2022-08-03T09:11:41.000Z,27.74
2022-08-03T09:11:41.000Z,27.74
2022-08-03T09:12:41.000Z,27.79
2022-08-03T09:12:41.000Z,27.79
2022-08-03T09:13:41.000Z,27.77
2022-08-03T09:13:41.000Z,27.77
2022-08-03T09:14:41.000Z,27.88
2022-08-03T09:15:41.000Z,27.89
2022-08-03T09:16:41.000Z,27.91
2022-08-03T09:17:41.000Z,27.92
2022-08-03T09:18:41.000Z,27.98
2022-08-03T09:20:58.000Z,28.09
2022-08-03T09:20:58.000Z,28.09
2022-08-03T09:20:58.000Z,28.09
2022-08-03T09:20:58.000Z,28.09
2022-08-03T09:20:58.000Z,28.09
2022-08-03T09:20:58.000Z,28.09
2022-08-03T09:21:58.000Z,28.09
2022-08-03T09:21:58.000Z,28.09
2022-08-03T09:21:58.000Z,28.09
2022-08-03T09:22:58.000Z,28.14
2022-08-03T09:22:58.000Z,28.14
2022-08-03T09:22:58.000Z,28.14
2022-08-03T09:23:58.000Z,28.14
2022-08-03T09:23:58.000Z,28.14
2022-08-03T09:23:58.000Z,28.14
2022-08-03T09:24:58.000Z,28.23
2022-08-03T09:24:58.000Z,28.23
2022-08-03T09:25:58.000Z,28.32
2022-08-03T09:25:58.000Z,28.32
2022-08-03T09:26:58.000Z,28.33
2022-08-03T09:26:58.000Z,28.33
2022-08-03T09:27:58.000Z,28.40
2022-08-03T09:27:58.000Z,28.40
2022-08-03T09:28:58.000Z,28.43
2022-08-03T09:28:58.000Z,28.43
2022-08-03T09:29:58.000Z,28.41
2022-08-03T09:30:58.000Z,28.44
2022-08-03T09:31:58.000Z,28.36
2022-08-03T09:32:58.000Z,28.41
2022-08-03T09:33:58.000Z,28.41
2022-08-03T09:34:58.000Z,28.38
2022-08-03T09:35:58.000Z,28.38
2022-08-03T09:36:58.000Z,28.43
2022-08-03T09:37:58.000Z,28.44
2022-08-03T09:38:58.000Z,28.48
2022-08-03T09:39:58.000Z,28.53
2022-08-03T09:40:58.000Z,28.50
2022-08-03T09:41:58.000Z,28.53
2022-08-03T09:42:58.000Z,28.60
2022-08-03T09:43:58.000Z,28.59
2022-08-03T09:44:57.000Z,28.66
2022-08-03T09:45:57.000Z,28.69
2022-08-03T09:46:57.000Z,28.66
2022-08-03T09:47:57.000Z,28.66
2022-08-03T09:48:57.000Z,28.68
2022-08-03T09:49:57.000Z,28.68
2022-08-03T09:49:57.000Z,28.68
2022-08-03T09:50:57.000Z,28.65
2022-08-03T09:50:57.000Z,28.65
2022-08-03T09:51:57.000Z,28.69
2022-08-03T09:51:57.000Z,28.69
2022-08-03T09:52:57.000Z,28.70
2022-08-03T09:52:57.000Z,28.70
2022-08-03T09:53:57.000Z,28.78
2022-08-03T09:53:57.000Z,28.78
2022-08-03T09:54:57.000Z,28.87
2022-08-03T09:55:57.000Z,28.91
2022-08-03T09:56:57.000Z,29.00
2022-08-03T09:57:57.000Z,29.04
2022-08-03T09:58:57.000Z,29.06
2022-08-03T09:59:57.000Z,29.11
2022-08-03T10:00:57.000Z,29.07
2022-08-03T10:01:57.000Z,29.04
2022-08-03T10:02:57.000Z,29.07
2022-08-03T10:03:57.000Z,29.11
2022-08-03T10:04:57.000Z,29.16
2022-08-03T10:04:57.000Z,29.16
2022-08-03T10:04:57.000Z,29.16
2022-08-03T10:05:57.000Z,29.22
2022-08-03T10:05:57.000Z,29.22
2022-08-03T10:05:57.000Z,29.22
2022-08-03T10:06:57.000Z,29.25
2022-08-03T10:06:57.000Z,29.25
2022-08-03T10:06:57.000Z,29.25
2022-08-03T10:07:57.000Z,29.31
2022-08-03T10:07:57.000Z,29.31
2022-08-03T10:07:57.000Z,29.31
2022-08-03T10:08:57.000Z,29.26
2022-08-03T10:08:57.000Z,29.26
2022-08-03T10:08:57.000Z,29.26
2022-08-03T10:09:57.000Z,29.33
2022-08-03T10:09:57.000Z,29.33
2022-08-03T10:10:57.000Z,29.41
2022-08-03T10:10:57.000Z,29.41
2022-08-03T10:11:57.000Z,29.43
2022-08-03T10:11:57.000Z,29.43
2022-08-03T10:12:57.000Z,29.41
2022-08-03T10:12:57.000Z,29.41
2022-08-03T10:13:57.000Z,29.34
2022-08-03T10:13:57.000Z,29.34
2022-08-03T10:14:57.000Z,29.34
2022-08-03T10:15:57.000Z,29.31
2022-08-03T10:16:57.000Z,29.28
2022-08-03T10:17:57.000Z,29.25
2022-08-03T10:18:57.000Z,29.26
2022-08-03T10:19:57.000Z,29.28
2022-08-03T10:20:57.000Z,29.31
2022-08-03T10:21:57.000Z,29.31
2022-08-03T10:22:57.000Z,29.26
2022-08-03T10:23:57.000Z,29.23
2022-08-03T10:24:57.000Z,29.23
2022-08-03T10:25:57.000Z,29.25
2022-08-03T10:26:57.000Z,29.28
2022-08-03T10:27:57.000Z,29.33
2022-08-03T10:28:57.000Z,29.47
2022-08-03T10:29:57.000Z,29.52
2022-08-03T10:29:57.000Z,29.52
2022-08-03T10:30:57.000Z,29.56
2022-08-03T10:30:57.000Z,29.56
2022-08-03T10:31:57.000Z,29.63
2022-08-03T10:31:57.000Z,29.63
2022-08-03T10:32:57.000Z,29.59
2022-08-03T10:32:57.000Z,29.59
2022-08-03T10:33:57.000Z,29.60
2022-08-03T10:33:57.000Z,29.60
2022-08-03T10:34:56.000Z,29.59
2022-08-03T10:35:56.000Z,29.59
2022-08-03T10:36:56.000Z,29.63
2022-08-03T10:37:56.000Z,29.68
2022-08-03T10:38:56.000Z,29.72
2022-08-03T10:39:56.000Z,29.74
2022-08-03T10:40:56.000Z,29.79
2022-08-03T10:41:56.000Z,29.82
2022-08-03T10:42:56.000Z,29.86
2022-08-03T10:43:56.000Z,29.84
2022-08-03T10:44:56.000Z,29.82
2022-08-03T10:45:56.000Z,29.82
2022-08-03T10:46:56.000Z,29.78
2022-08-03T10:47:56.000Z,29.77
2022-08-03T10:48:56.000Z,29.77
2022-08-03T10:49:56.000Z,29.78
2022-08-03T10:49:56.000Z,29.78
2022-08-03T10:50:56.000Z,29.82
2022-08-03T10:50:56.000Z,29.82